createdAt,value
2023-04-15T00:01:49.432Z,5.70
2023-04-15T00:04:52.875Z,8.65
2023-04-15T00:07:56.016Z,5.80
2023-04-15T00:11:03.143Z,6.57
2023-04-15T00:14:06.451Z,5.43
2023-04-15T00:17:09.558Z,4.77
2023-04-15T00:20:12.476Z,7.18
2023-04-15T00:23:15.872Z,7.35
2023-04-15T00:26:19.677Z,6.85
2023-04-15T00:29:23.239Z,7.60
2023-04-15T00:32:27.142Z,6.73
2023-04-15T00:35:32.936Z,7.37
2023-04-15T00:38:38.255Z,8.43
2023-04-15T00:41:41.682Z,8.52
2023-04-15T00:44:44.586Z,8.90
2023-04-15T00:47:47.738Z,9.87
2023-04-15T00:50:50.698Z,6.93
2023-04-15T00:53:53.734Z,8.63
2023-04-15T00:56:56.805Z,8.23
2023-04-15T01:00:01.351Z,10.10
2023-04-15T01:03:04.292Z,10.17
2023-04-15T01:06:08.667Z,12.48
2023-04-15T01:09:12.118Z,10.38
2023-04-15T01:12:17.249Z,9.75
2023-04-15T01:15:21.551Z,10.20
2023-04-15T01:18:24.864Z,8.03
2023-04-15T01:21:28.259Z,10.13
2023-04-15T01:24:33.503Z,11.00
2023-04-15T01:27:40.277Z,6.72
2023-04-15T01:30:44.881Z,12.20
2023-04-15T01:33:47.781Z,7.20
2023-04-15T01:36:51.513Z,6.78
2023-04-15T01:39:54.457Z,10.38
2023-04-15T01:42:57.874Z,10.98
2023-04-15T01:46:00.696Z,6.90
2023-04-15T01:49:03.796Z,12.60
2023-04-15T01:52:08.237Z,10.68
2023-04-15T01:55:12.815Z,12.98
2023-04-15T01:58:15.954Z,10.10
2023-04-15T02:01:20.575Z,14.13
2023-04-15T02:04:24.211Z,12.00
2023-04-15T02:07:29.079Z,11.55
2023-04-15T02:10:32.313Z,11.20
2023-04-15T02:13:35.338Z,11.75
2023-04-15T02:16:38.542Z,10.50
2023-04-15T02:19:41.430Z,12.20
2023-04-15T02:22:44.537Z,12.73
2023-04-15T02:25:53.447Z,12.73
2023-04-15T02:28:57.362Z,11.77
2023-04-15T02:32:00.174Z,8.83
2023-04-15T02:35:05.785Z,13.60
2023-04-15T02:38:08.760Z,9.50
2023-04-15T02:41:11.883Z,10.55
2023-04-15T02:44:14.672Z,11.38
2023-04-15T02:47:19.225Z,11.23
2023-04-15T02:50:23.812Z,11.37
2023-04-15T02:53:27.052Z,13.90
2023-04-15T02:56:31.072Z,12.35
2023-04-15T02:59:34.141Z,16.77
2023-04-15T03:02:38.922Z,13.57
2023-04-15T03:05:42.421Z,12.30
2023-04-15T03:08:45.857Z,11.88
2023-04-15T03:11:49.432Z,13.10
2023-04-15T03:14:52.544Z,13.68
2023-04-15T03:17:57.555Z,13.63
2023-04-15T03:21:00.483Z,11.90
2023-04-15T03:24:04.053Z,13.13
2023-04-15T03:27:08.185Z,10.88
2023-04-15T03:30:12.537Z,13.65
2023-04-15T03:33:16.447Z,12.83
2023-04-15T03:36:19.819Z,13.87
2023-04-15T03:39:22.735Z,10.75
2023-04-15T03:42:26.096Z,10.32
2023-04-15T03:45:29.343Z,11.38
2023-04-15T03:48:32.598Z,11.93
2023-04-15T03:51:35.921Z,12.13
2023-04-15T03:54:38.894Z,14.30
2023-04-15T03:57:41.983Z,16.73
2023-04-15T04:00:45.049Z,10.63
2023-04-15T04:03:48.167Z,15.47
2023-04-15T04:06:51.227Z,16.73
2023-04-15T04:09:54.250Z,12.70
2023-04-15T04:12:57.091Z,18.05
2023-04-15T04:16:00.299Z,15.98
2023-04-15T04:19:03.250Z,15.83
2023-04-15T04:22:06.877Z,15.43
2023-04-15T04:25:10.682Z,13.23
2023-04-15T04:28:13.805Z,14.20
2023-04-15T04:31:17.235Z,13.57
2023-04-15T04:34:20.476Z,13.73
2023-04-15T04:37:24.813Z,10.07
2023-04-15T04:40:27.826Z,13.00
2023-04-15T04:43:30.921Z,8.45
2023-04-15T04:46:34.225Z,12.07
2023-04-15T04:49:37.113Z,12.10
2023-04-15T04:52:40.380Z,12.43
2023-04-15T04:55:42.946Z,11.00
2023-04-15T04:58:46.060Z,11.32
2023-04-15T05:01:48.755Z,10.23
2023-04-15T05:04:54.549Z,11.20
2023-04-15T05:07:57.692Z,9.90
2023-04-15T05:11:01.101Z,9.38
2023-04-15T05:14:04.096Z,10.05
2023-04-15T05:17:07.100Z,10.15
2023-04-15T05:20:10.749Z,11.53
2023-04-15T05:23:14.089Z,9.03
2023-04-15T05:26:17.906Z,6.40
2023-04-15T05:29:21.008Z,7.43
2023-04-15T05:32:23.689Z,6.47
2023-04-15T05:35:27.399Z,9.57
2023-04-15T05:38:30.087Z,9.67
2023-04-15T05:41:33.233Z,8.95
2023-04-15T05:44:35.842Z,8.95
2023-04-15T05:47:38.896Z,14.02
2023-04-15T05:50:42.592Z,9.83
2023-04-15T05:53:46.488Z,12.73
2023-04-15T05:56:49.668Z,8.68
2023-04-15T05:59:53.112Z,10.15
2023-04-15T06:02:58.064Z,7.97
2023-04-15T06:06:01.669Z,9.93
2023-04-15T06:09:06.363Z,10.20
2023-04-15T06:12:12.487Z,5.87
2023-04-15T06:15:15.401Z,13.57
2023-04-15T06:18:18.499Z,8.38
2023-04-15T06:21:21.324Z,5.80
2023-04-15T06:24:24.405Z,8.60
2023-04-15T06:27:27.595Z,11.57
2023-04-15T06:30:30.751Z,10.07
2023-04-15T06:33:33.418Z,8.80
2023-04-15T06:36:36.492Z,11.37
2023-04-15T06:39:39.551Z,11.23
2023-04-15T06:42:42.730Z,11.30
2023-04-15T06:45:46.098Z,9.07
2023-04-15T06:48:49.170Z,7.57
2023-04-15T06:51:51.946Z,13.50
2023-04-15T06:54:54.935Z,8.07
2023-04-15T06:57:57.797Z,8.80
2023-04-15T07:01:00.978Z,10.77
2023-04-15T07:04:04.253Z,10.85
2023-04-15T07:07:08.418Z,12.80
2023-04-15T07:10:12.344Z,13.23
2023-04-15T07:13:15.460Z,15.32
2023-04-15T07:16:18.595Z,10.05
2023-04-15T07:19:22.054Z,8.27
2023-04-15T07:22:25.301Z,9.13
2023-04-15T07:25:28.321Z,13.03
2023-04-15T07:28:31.176Z,12.50
2023-04-15T07:31:34.432Z,9.43
2023-04-15T07:34:38.200Z,11.10
2023-04-15T07:37:42.142Z,17.37
2023-04-15T07:40:44.960Z,11.47
2023-04-15T07:43:48.992Z,7.50
2023-04-15T07:46:51.703Z,7.70
2023-04-15T07:49:54.647Z,7.55
2023-04-15T07:52:57.912Z,14.67
2023-04-15T07:56:00.794Z,5.53
2023-04-15T07:59:05.017Z,4.28
2023-04-15T08:02:08.837Z,4.95
2023-04-15T08:05:11.971Z,7.65
2023-04-15T08:08:14.623Z,5.13
2023-04-15T08:11:17.937Z,4.33
2023-04-15T08:14:21.051Z,4.03
2023-04-15T08:17:24.565Z,5.07
2023-04-15T08:20:27.349Z,6.20
2023-04-15T08:23:30.431Z,4.63
2023-04-15T08:26:33.500Z,6.43
2023-04-15T08:29:36.697Z,7.30
2023-04-15T08:32:39.481Z,7.70
2023-04-15T08:35:42.483Z,5.20
2023-04-15T08:38:45.814Z,4.13
2023-04-15T08:42:02.081Z,9.23
2023-04-15T08:45:06.024Z,3.53
2023-04-15T08:48:14.427Z,11.68
2023-04-15T08:51:18.312Z,8.98
2023-04-15T08:54:21.601Z,10.33
2023-04-15T08:57:28.622Z,5.70
2023-04-15T09:00:32.721Z,4.45
2023-04-15T09:03:36.030Z,3.87
2023-04-15T09:06:40.958Z,3.33
2023-04-15T09:09:43.752Z,3.47
2023-04-15T09:12:46.880Z,3.93
2023-04-15T09:15:50.433Z,4.10
2023-04-15T09:18:54.319Z,2.60
2023-04-15T09:21:59.666Z,2.30
2023-04-15T09:25:02.778Z,2.87
2023-04-15T09:28:05.578Z,7.10
2023-04-15T09:31:08.718Z,3.87
2023-04-15T09:34:11.778Z,3.10
2023-04-15T09:37:31.766Z,2.65
2023-04-15T09:40:42.306Z,2.47
2023-04-15T09:43:46.105Z,4.00
2023-04-15T09:46:48.642Z,2.58
2023-04-15T09:49:59.390Z,2.90
2023-04-15T09:53:04.163Z,2.17
2023-04-15T09:56:09.196Z,2.53
2023-04-15T09:59:12.227Z,2.57
2023-04-15T10:02:19.240Z,2.17
2023-04-15T10:05:23.746Z,3.72
2023-04-15T10:08:31.744Z,4.15
2023-04-15T10:11:36.322Z,4.80
2023-04-15T10:14:41.060Z,1.97
2023-04-15T10:17:45.648Z,1.98
2023-04-15T10:20:49.351Z,2.47
2023-04-15T10:23:52.440Z,2.22
2023-04-15T10:26:55.676Z,2.70
2023-04-15T10:30:01.053Z,1.80
2023-04-15T10:33:05.506Z,2.40
2023-04-15T10:36:09.014Z,2.60
2023-04-15T10:39:47.232Z,2.90
2023-04-15T10:42:50.295Z,2.60
2023-04-15T10:45:53.927Z,2.10
2023-04-15T10:48:57.851Z,3.50
2023-04-15T10:52:01.566Z,2.60
2023-04-15T10:55:12.667Z,2.78
2023-04-15T10:58:15.725Z,3.03
2023-04-15T11:01:23.437Z,3.03
2023-04-15T11:04:55.355Z,2.53
2023-04-15T11:07:58.887Z,2.28
2023-04-15T11:11:01.987Z,4.57
2023-04-15T11:14:05.212Z,2.97
2023-04-15T11:17:08.170Z,2.30
2023-04-15T11:20:16.331Z,2.83
2023-04-15T11:23:29.004Z,3.95
2023-04-15T11:26:32.479Z,3.10
2023-04-15T11:29:35.192Z,4.10
2023-04-15T11:32:42.298Z,3.23
2023-04-15T11:35:45.236Z,2.50
2023-04-15T11:38:48.252Z,2.33
2023-04-15T11:41:50.864Z,3.00
2023-04-15T11:45:16.504Z,3.90
2023-04-15T11:48:20.377Z,2.90
2023-04-15T11:51:23.494Z,3.00
2023-04-15T11:54:28.837Z,4.25
2023-04-15T11:57:32.418Z,2.40
2023-04-15T12:00:35.950Z,2.10
2023-04-15T12:03:40.848Z,2.80
2023-04-15T12:06:43.882Z,2.67
2023-04-15T12:09:55.330Z,2.78
2023-04-15T12:12:57.971Z,5.30
2023-04-15T12:16:00.900Z,2.93
2023-04-15T12:19:10.499Z,2.90
2023-04-15T12:22:18.117Z,2.95
2023-04-15T12:25:34.702Z,2.70
2023-04-15T12:28:41.252Z,2.83
2023-04-15T12:31:53.627Z,2.43
2023-04-15T12:34:57.583Z,2.57
2023-04-15T12:38:00.558Z,3.58
2023-04-15T12:41:04.118Z,4.03
2023-04-15T12:44:06.955Z,20.75
2023-04-15T12:47:13.760Z,4.03
2023-04-15T12:50:18.271Z,2.23
2023-04-15T12:53:21.881Z,3.72
2023-04-15T12:56:25.012Z,3.97
2023-04-15T12:59:29.314Z,3.90
2023-04-15T13:02:32.242Z,4.00
2023-04-15T13:05:37.209Z,4.67
2023-04-15T13:08:42.686Z,2.97
2023-04-15T13:11:51.294Z,1.70
2023-04-15T13:14:53.866Z,1.70
2023-04-15T13:17:56.925Z,1.60
2023-04-15T13:20:59.687Z,1.37
2023-04-15T13:24:02.775Z,2.30
2023-04-15T13:27:05.986Z,3.33
2023-04-15T13:30:09.510Z,2.85
2023-04-15T13:33:12.437Z,4.57
2023-04-15T13:36:15.730Z,6.30
2023-04-15T13:39:18.545Z,7.57
2023-04-15T13:42:22.915Z,4.10
2023-04-15T13:45:26.383Z,8.68
2023-04-15T13:48:29.309Z,3.80
2023-04-15T13:51:33.128Z,4.43
2023-04-15T13:54:37.133Z,5.40
2023-04-15T13:57:41.448Z,3.78
2023-04-15T14:00:44.645Z,4.43
2023-04-15T14:03:47.942Z,4.50
2023-04-15T14:06:51.171Z,3.17
2023-04-15T14:09:55.251Z,7.05
2023-04-15T14:12:57.853Z,4.03
2023-04-15T14:16:00.802Z,3.33
2023-04-15T14:19:03.721Z,5.83
2023-04-15T14:22:07.633Z,9.50
2023-04-15T14:25:17.217Z,4.62
2023-04-15T14:28:26.415Z,3.55
2023-04-15T14:31:29.134Z,15.93
2023-04-15T14:34:32.035Z,2.73
2023-04-15T14:37:34.647Z,3.90
2023-04-15T14:40:37.678Z,2.80
2023-04-15T14:43:40.991Z,9.40
2023-04-15T14:46:43.867Z,5.40
2023-04-15T14:49:46.708Z,3.40
2023-04-15T14:52:49.987Z,4.03
2023-04-15T14:55:52.686Z,3.30
2023-04-15T14:58:55.831Z,8.32
2023-04-15T15:01:58.804Z,3.87
2023-04-15T15:05:03.017Z,4.00
2023-04-15T15:08:08.285Z,4.07
2023-04-15T15:11:11.494Z,3.10
2023-04-15T15:14:15.569Z,2.75
2023-04-15T15:17:19.613Z,3.10
2023-04-15T15:20:23.404Z,3.03
2023-04-15T15:23:26.320Z,2.90
2023-04-15T15:26:30.018Z,2.83
2023-04-15T15:29:33.320Z,2.45
2023-04-15T15:32:36.231Z,3.00
2023-04-15T15:35:41.490Z,3.40
2023-04-15T15:38:44.202Z,4.37
2023-04-15T15:41:47.558Z,6.15
2023-04-15T15:44:52.920Z,3.60
2023-04-15T15:47:57.448Z,3.10
2023-04-15T15:51:00.185Z,2.20
2023-04-15T15:54:03.503Z,2.87
2023-04-15T15:57:06.838Z,3.28
2023-04-15T16:00:12.524Z,3.03
2023-04-15T16:03:16.233Z,4.37
2023-04-15T16:06:18.967Z,3.53
2023-04-15T16:09:22.332Z,3.50
2023-04-15T16:12:25.335Z,2.28
2023-04-15T16:15:28.333Z,3.47
2023-04-15T16:18:31.508Z,3.03
2023-04-15T16:21:35.617Z,10.70
2023-04-15T16:24:38.363Z,6.97
2023-04-15T16:27:56.517Z,6.87
2023-04-15T16:31:03.080Z,3.90
2023-04-15T16:34:06.692Z,4.50
2023-04-15T16:37:09.716Z,3.90
2023-04-15T16:40:13.076Z,2.60
2023-04-15T16:43:16.303Z,4.07
2023-04-15T16:46:19.810Z,2.87
2023-04-15T16:49:22.884Z,3.97
2023-04-15T16:52:28.406Z,5.13
2023-04-15T16:55:32.215Z,3.67
2023-04-15T16:58:35.323Z,3.85
2023-04-15T17:01:38.272Z,2.70
2023-04-15T17:04:43.569Z,3.87
2023-04-15T17:07:46.563Z,6.13
2023-04-15T17:10:51.938Z,7.13
2023-04-15T17:13:54.598Z,6.45
2023-04-15T17:16:57.837Z,4.37
2023-04-15T17:20:00.723Z,4.00
2023-04-15T17:23:04.324Z,5.03
2023-04-15T17:26:07.440Z,6.10
2023-04-15T17:29:10.826Z,4.75
2023-04-15T17:32:14.425Z,4.65
2023-04-15T17:35:17.927Z,6.75
2023-04-15T17:38:21.368Z,6.20
2023-04-15T17:41:28.283Z,5.33
2023-04-15T17:44:31.206Z,5.47
2023-04-15T17:47:34.307Z,7.85
2023-04-15T17:50:39.122Z,6.50
2023-04-15T17:53:42.409Z,6.80
2023-04-15T17:56:46.303Z,7.60
2023-04-15T17:59:50.213Z,10.73
2023-04-15T18:02:53.461Z,8.02
2023-04-15T18:05:56.757Z,8.63
2023-04-15T18:09:00.333Z,9.53
2023-04-15T18:12:08.227Z,10.77
2023-04-15T18:15:12.437Z,14.93
2023-04-15T18:18:16.211Z,15.05
2023-04-15T18:21:19.434Z,17.40
2023-04-15T18:24:22.961Z,26.03
2023-04-15T18:27:25.905Z,29.30
2023-04-15T18:30:29.766Z,40.47
2023-04-15T18:33:32.973Z,23.85
2023-04-15T18:36:36.708Z,21.50
2023-04-15T18:39:39.542Z,26.07
2023-04-15T18:42:43.609Z,29.70
2023-04-15T18:45:47.486Z,28.77
2023-04-15T18:48:50.555Z,23.65
2023-04-15T18:51:54.185Z,19.67
2023-04-15T18:54:58.174Z,20.67
2023-04-15T18:58:06.477Z,19.27
2023-04-15T19:01:12.481Z,17.20
2023-04-15T19:04:17.055Z,20.62
2023-04-15T19:07:21.226Z,24.60
2023-04-15T19:10:25.067Z,19.70
2023-04-15T19:13:29.080Z,25.27
2023-04-15T19:16:32.782Z,101.12
2023-04-15T19:19:37.200Z,100.05
2023-04-15T19:22:41.111Z,35.95
2023-04-15T19:25:44.811Z,28.43
2023-04-15T19:28:49.766Z,23.67
2023-04-15T19:31:53.990Z,26.73
2023-04-15T19:34:57.270Z,30.88
2023-04-15T19:38:00.908Z,30.83
2023-04-15T19:41:05.008Z,49.87
2023-04-15T19:44:08.712Z,49.83
2023-04-15T19:47:13.907Z,52.38
2023-04-15T19:50:20.833Z,37.67
2023-04-15T19:53:26.071Z,32.35
2023-04-15T19:56:30.778Z,31.03
2023-04-15T19:59:36.225Z,40.60
2023-04-15T20:02:40.826Z,49.03
2023-04-15T20:05:45.063Z,43.58
2023-04-15T20:08:48.589Z,40.78
2023-04-15T20:12:09.327Z,50.43
2023-04-15T20:15:16.353Z,49.30
2023-04-15T20:18:19.720Z,36.53
2023-04-15T20:21:24.821Z,36.17
2023-04-15T20:24:28.370Z,30.33
2023-04-15T20:27:39.628Z,22.57
2023-04-15T20:30:47.823Z,24.23
2023-04-15T20:33:50.767Z,24.67
2023-04-15T20:36:56.586Z,23.20
2023-04-15T20:40:00.757Z,18.33
2023-04-15T20:43:04.494Z,17.23
2023-04-15T20:46:17.865Z,16.50
2023-04-15T20:49:24.470Z,18.55
2023-04-15T20:52:27.602Z,20.60
2023-04-15T20:55:31.347Z,17.27
2023-04-15T20:58:34.427Z,16.57
2023-04-15T21:01:37.250Z,14.73
2023-04-15T21:04:41.529Z,18.73
2023-04-15T21:07:44.884Z,21.48
2023-04-15T21:10:47.959Z,16.58
2023-04-15T21:13:51.713Z,18.30
2023-04-15T21:16:54.536Z,15.87
2023-04-15T21:19:57.450Z,15.88
2023-04-15T21:23:00.196Z,20.20
2023-04-15T21:26:03.441Z,17.87
2023-04-15T21:29:08.763Z,20.87
2023-04-15T21:32:13.668Z,23.83
2023-04-15T21:35:16.414Z,22.52
2023-04-15T21:38:20.802Z,19.40
2023-04-15T21:41:25.814Z,21.17
2023-04-15T21:44:28.855Z,20.20
2023-04-15T21:47:31.791Z,23.80
2023-04-15T21:51:01.953Z,18.77
2023-04-15T21:54:04.536Z,18.90
2023-04-15T21:57:07.448Z,17.20
2023-04-15T22:00:11.714Z,15.97
2023-04-15T22:03:14.162Z,17.27
2023-04-15T22:06:17.560Z,17.58
2023-04-15T22:09:20.124Z,16.40
2023-04-15T22:12:23.768Z,20.25
2023-04-15T22:15:26.304Z,18.87
2023-04-15T22:18:29.553Z,16.90
2023-04-15T22:21:32.636Z,17.50
2023-04-15T22:24:40.129Z,13.48
2023-04-15T22:27:43.999Z,14.52
2023-04-15T22:30:46.820Z,16.73
2023-04-15T22:33:49.478Z,18.97
2023-04-15T22:36:52.666Z,15.27
2023-04-15T22:39:55.634Z,17.60
2023-04-15T22:42:59.559Z,18.70
2023-04-15T22:46:02.324Z,21.37
2023-04-15T22:49:09.866Z,16.77
2023-04-15T22:52:23.330Z,17.95
2023-04-15T22:55:32.715Z,20.50
2023-04-15T22:58:35.985Z,24.10
2023-04-15T23:01:39.155Z,22.10
2023-04-15T23:04:41.980Z,24.97
2023-04-15T23:07:44.886Z,30.17
2023-04-15T23:10:47.491Z,26.92
2023-04-15T23:13:50.871Z,26.87
2023-04-15T23:16:53.481Z,24.20
2023-04-15T23:19:56.570Z,25.00
2023-04-15T23:22:59.332Z,24.95
2023-04-15T23:26:04.024Z,22.37
2023-04-15T23:29:08.049Z,17.45
2023-04-15T23:32:11.216Z,18.73
2023-04-15T23:35:13.920Z,17.07
2023-04-15T23:38:16.870Z,15.50
2023-04-15T23:41:19.528Z,14.65
2023-04-15T23:44:22.866Z,14.93
2023-04-15T23:47:25.547Z,12.97
2023-04-15T23:50:28.665Z,14.87
2023-04-15T23:53:31.441Z,16.48
2023-04-15T23:56:34.812Z,15.85
2023-04-15T23:59:37.887Z,21.75
